Latest Weather Observations for Wilcannia Airport

IDN60801

Issued at 9:32 am EDT Wednesday 10 February 2016 (issued every 30 minutes, with the page automatically refreshed every 10 minutes)

About weather observations | Map of weather stations | Latest weather observations for NSW | Other Formats
Station Details ID: 046012 Name: WILCANNIA AERODROME AWS Lat: -31.52 Lon: 143.38 Height: 94.3 m
Data from the previous 72 hours. | See also: Recent months at Wilcannia Airport
Date/Time
EDT
Temp
°C
App
Temp
°C
Dew
Point
Rel
Hum
%
Delta-T
°C
Wind Press
QNH
hPa
Press
MSL
hPa
Rain
since 9 am
mm
Dir
 
Spd
km/h
Gust
km/h
Spd
kts
Gust
kts
10/09:30am 32.5 28.0 4.3 17 14.8 NNE 17 24 9 13 1013.7 1013.1 0.0
10/09:00am 30.0 25.8 3.9 19 13.4 NE 15 20 8 11 1013.8 1013.2 0.0
10/08:30am 29.5 26.4 5.6 22 12.6 NNW 11 15 6 8 1013.4 1012.8 0.0
10/08:00am 26.1 22.9 5.1 26 10.7 N 11 17 6 9 1013.1 1012.5 0.0
10/07:58am 25.6 22.4 5.2 27 10.4 NNW 11 17 6 9 1013.0 1012.4 0.0
10/07:30am 20.5 17.2 2.3 30 8.5 NNW 9 11 5 6 1012.9 1012.3 0.0
10/07:00am 19.6 17.9 1.6 30 8.2 CALM 0 0 0 0 1012.6 1012.1 0.0
10/06:30am 19.5 16.8 2.4 32 7.9 ESE 6 6 3 3 1012.6 1012.1 0.0
10/06:00am 19.4 16.4 0.9 29 8.3 E 6 7 3 4 1012.5 1012.0 0.0
10/05:30am 20.2 16.7 1.1 28 8.7 ESE 9 11 5 6 1012.4 1011.9 0.0
10/05:00am 19.6 16.2 -0.9 25 8.9 SE 7 11 4 6 1012.1 1011.6 0.0
10/04:30am 21.4 19.5 0.6 25 9.4 CALM 0 2 0 1 1011.6 1011.1 0.0
10/04:00am 22.5 18.1 0.4 23 10.1 ENE 13 15 7 8 1011.3 1010.8 0.0
10/03:30am 23.5 19.1 0.6 22 10.6 ENE 13 15 7 8 1011.2 1010.7 0.0
10/03:00am 24.5 20.3 1.4 22 10.9 ENE 13 15 7 8 1011.2 1010.7 0.0
10/02:30am 24.5 20.2 0.8 21 11.1 ENE 13 15 7 8 1011.3 1010.8 0.0
10/02:00am 24.8 20.8 0.3 20 11.4 NE 11 13 6 7 1011.6 1011.1 0.0
10/01:30am 25.5 21.2 0.9 20 11.6 NE 13 15 7 8 1011.8 1011.3 0.0
10/01:00am 25.9 21.9 0.5 19 11.9 NE 11 13 6 7 1012.0 1011.5 0.0
10/12:30am 26.1 21.9 -0.8 17 12.4 NE 11 13 6 7 1012.2 1011.7 0.0
10/12:00am 26.7 22.6 -0.3 17 12.6 NNE 11 13 6 7 1012.4 1011.9 0.0
 
Date/Time
EDT
Temp
°C
App
Temp
°C
Dew
Point
Rel
Hum
%
Delta-T
°C
Wind Press
QNH
hPa
Press
MSL
hPa
Rain
since 9 am
mm
Dir
 
Spd
km/h
Gust
km/h
Spd
kts
Gust
kts
09/11:30pm 27.6 23.5 -0.5 16 13.1 NE 11 13 6 7 1012.5 1012.0 0.0
09/11:00pm 27.9 24.2 -0.2 16 13.2 NE 9 11 5 6 1012.7 1012.2 0.0
09/10:30pm 29.5 25.1 0.2 15 14.0 NE 13 13 7 7 1012.7 1012.2 0.0
09/10:00pm 29.3 25.6 0.0 15 14.0 ENE 9 9 5 5 1012.5 1012.0 0.0
09/09:30pm 30.5 26.4 0.0 14 14.7 E 11 13 6 7 1012.4 1011.9 0.0
09/09:00pm 31.7 28.2 1.0 14 15.2 E 9 11 5 6 1012.3 1011.8 0.0
09/08:30pm 33.5 29.6 1.3 13 16.1 ESE 11 13 6 7 1012.2 1011.7 0.0
09/08:00pm 36.2 32.5 2.3 12 17.6 E 11 17 6 9 1012.1 1011.6 0.0
09/07:30pm 37.3 33.0 3.1 12 18.1 E 15 24 8 13 1012.0 1011.5 0.0
09/07:00pm 38.1 33.3 2.5 11 18.7 E 17 26 9 14 1011.8 1011.3 0.0
09/06:30pm 38.1 32.9 2.5 11 18.7 ESE 19 32 10 17 1011.7 1011.2 0.0
09/06:00pm 38.0 33.2 2.5 11 18.6 E 17 32 9 17 1011.8 1011.3 0.0
09/05:30pm 38.6 33.5 2.9 11 18.9 E 19 30 10 16 1012.0 1011.5 0.0
09/05:00pm 38.3 33.1 2.7 11 18.8 E 19 30 10 16 1012.1 1011.6 0.0
09/04:30pm 38.6 32.5 2.9 11 18.9 SE 24 37 13 20 1012.6 1012.1 0.0
09/04:00pm 38.9 33.2 3.1 11 19.1 ESE 22 41 12 22 1013.0 1012.4 0.0
09/03:30pm 38.9 33.9 4.4 12 18.7 SE 20 41 11 22 1013.5 1012.9 0.0
09/03:00pm 39.0 34.4 5.6 13 18.5 ESE 19 35 10 19 1014.0 1013.4 0.0
09/02:30pm 37.3 33.0 5.3 14 17.5 SE 17 33 9 18 1014.6 1014.0 0.0
09/02:00pm 37.5 32.9 5.5 14 17.5 ESE 19 32 10 17 1015.0 1014.4 0.0
09/01:30pm 36.3 31.5 5.5 15 16.8 ESE 20 43 11 23 1015.4 1014.8 0.0
09/01:00pm 36.7 32.5 5.9 15 16.9 ESE 17 24 9 13 1015.8 1015.2 0.0
09/12:30pm 36.3 33.4 6.5 16 16.5 NE 11 20 6 11 1016.3 1015.7 0.0
09/12:00pm 36.1 32.8 6.3 16 16.4 NE 13 17 7 9 1016.7 1016.1 0.0
09/11:30am 34.6 31.2 6.0 17 15.6 NE 13 22 7 12 1017.0 1016.4 0.0
09/11:00am 33.3 29.8 7.3 20 14.3 ENE 15 24 8 13 1017.1 1016.5 0.0
09/10:30am 32.3 28.6 7.9 22 13.5 NE 17 24 9 13 1017.1 1016.5 0.0
09/10:00am 31.3 27.5 7.7 23 13.0 NE 17 24 9 13 1017.2 1016.6 0.0
09/09:30am 31.0 28.1 8.1 24 12.7 NE 13 19 7 10 1017.0 1016.4 0.0
09/09:00am 30.5 26.8 6.4 22 12.9 E 15 19 8 10 1017.0 1016.4 0.0
09/08:30am 28.8 25.7 5.6 23 12.2 ESE 11 15 6 8 1016.7 1016.1 0.0
09/08:00am 26.0 22.5 5.6 27 10.5 ESE 13 19 7 10 1016.4 1015.8 0.0
09/07:30am 23.7 20.3 6.0 32 9.1 SE 13 17 7 9 1016.2 1015.6 0.0
09/07:00am 21.3 17.7 5.2 35 8.0 SSW 13 17 7 9 1015.5 1014.9 0.0
09/06:30am 21.0 18.3 5.4 36 7.8 SE 9 11 5 6 1014.8 1014.2 0.0
09/06:00am 21.3 18.4 4.8 34 8.1 SE 9 9 5 5 1014.4 1013.8 0.0
09/05:30am 21.6 19.3 4.7 33 8.3 SE 6 9 3 5 1014.2 1013.6 0.0
09/05:00am 22.8 20.2 4.3 30 9.1 ENE 7 11 4 6 1014.0 1013.4 0.0
09/04:30am 23.4 20.5 4.9 30 9.3 ENE 9 11 5 6 1013.8 1013.2 0.0
09/04:00am 23.7 20.9 5.1 30 9.4 E 9 11 5 6 1014.0 1013.4 0.0
09/03:30am 24.8 21.6 5.1 28 10.0 E 11 11 6 6 1013.9 1013.3 0.0
09/03:00am 25.7 22.2 5.3 27 10.4 ENE 13 15 7 8 1014.0 1013.4 0.0
09/02:30am 25.6 22.4 5.2 27 10.4 ENE 11 13 6 7 1014.2 1013.6 0.0
09/02:00am 25.3 22.0 4.4 26 10.5 ENE 11 11 6 6 1014.3 1013.7 0.0
09/01:30am 26.6 23.4 5.0 25 11.1 ENE 11 13 6 7 1014.4 1013.8 0.0
09/01:00am 27.2 24.0 4.9 24 11.4 E 11 13 6 7 1014.5 1013.9 0.0
09/12:30am 27.9 24.2 4.2 22 12.1 ESE 13 13 7 7 1014.8 1014.2 0.0
09/12:00am 29.2 25.9 4.6 21 12.7 ESE 11 15 6 8 1014.8 1014.2 0.0
 
Date/Time
EDT
Temp
°C
App
Temp
°C
Dew
Point
Rel
Hum
%
Delta-T
°C
Wind Press
QNH
hPa
Press
MSL
hPa
Rain
since 9 am
mm
Dir
 
Spd
km/h
Gust
km/h
Spd
kts
Gust
kts
08/11:30pm 29.9 26.6 4.5 20 13.1 SE 11 15 6 8 1014.9 1014.3 0.0
08/11:00pm 31.1 27.2 3.2 17 14.2 SSE 13 17 7 9 1014.7 1014.1 0.0
08/10:30pm 32.0 27.7 3.1 16 14.8 SE 15 19 8 10 1014.6 1014.0 0.0
08/10:00pm 32.3 28.2 2.4 15 15.2 SSE 13 17 7 9 1014.3 1013.7 0.0
08/09:30pm 33.0 28.6 2.9 15 15.5 SSE 15 22 8 12 1013.9 1013.3 0.0
08/09:00pm 34.1 29.3 2.8 14 16.1 SSE 17 24 9 13 1013.6 1013.0 0.0
08/08:30pm 34.8 30.1 3.4 14 16.4 SSE 17 22 9 12 1013.3 1012.7 0.0
08/08:00pm 35.9 30.8 3.2 13 17.2 SE 19 28 10 15 1013.1 1012.5 0.0
08/07:30pm 37.1 31.8 3.0 12 18.0 SE 20 32 11 17 1012.7 1012.2 0.0
08/07:00pm 37.7 32.5 2.2 11 18.5 SE 19 28 10 15 1012.6 1012.1 0.0
08/06:30pm 38.1 32.3 2.5 11 18.7 SE 22 30 12 16 1012.7 1012.2 0.0
08/06:00pm 38.4 33.6 2.8 11 18.8 SSE 17 28 9 15 1012.7 1012.2 0.0
08/05:30pm 38.0 32.4 3.7 12 18.3 SE 22 44 12 24 1012.9 1012.3 0.0
08/05:00pm 38.6 32.5 2.9 11 18.9 SE 24 35 13 19 1013.2 1012.6 0.0
08/04:30pm 39.0 32.4 4.4 12 18.8 SE 28 37 15 20 1013.5 1012.9 0.0
08/04:00pm 37.9 31.9 3.6 12 18.3 ESE 24 37 13 20 1013.8 1013.2 0.0
08/03:30pm 38.0 32.8 3.7 12 18.3 SSE 20 32 11 17 1014.2 1013.6 0.0
08/03:00pm 37.4 32.0 4.4 13 17.8 SSE 22 37 12 20 1014.5 1013.9 0.0
08/02:30pm 37.5 31.7 4.4 13 17.8 S 24 43 13 23 1014.9 1014.3 0.0
08/02:00pm 36.8 30.1 3.9 13 17.5 SE 28 43 15 23 1015.5 1014.9 0.0
08/01:30pm 37.1 31.5 5.2 14 17.4 SSE 24 41 13 22 1015.6 1015.0 0.0
08/01:20pm 36.7 30.2 4.9 14 17.2 SSE 28 39 15 21 1015.7 1015.1 0.0
08/01:00pm 36.4 31.4 4.6 14 17.1 SSE 20 39 11 21 1016.0 1015.4 0.0
08/12:30pm 36.5 31.0 5.7 15 16.9 SSE 24 39 13 21 1016.4 1015.8 0.0
08/12:00pm 35.9 29.7 6.2 16 16.3 SE 28 44 15 24 1016.7 1016.1 0.0
08/11:52am 35.4 29.9 5.8 16 16.1 SE 24 44 13 24 1016.8 1016.2 0.0
08/11:30am 34.5 31.1 7.5 19 15.0 SE 15 24 8 13 1017.0 1016.4 0.0
08/11:00am 34.4 31.1 8.2 20 14.7 E 15 22 8 12 1017.2 1016.6 0.0
08/10:30am 33.3 30.6 7.3 20 14.4 ESE 11 22 6 12 1017.2 1016.6 0.0
08/10:00am 31.9 30.2 8.2 23 13.2 NNE 7 11 4 6 1017.2 1016.6 0.0
08/09:30am 31.6 29.6 8.6 24 12.9 E 9 15 5 8 1017.2 1016.6 0.0
08/09:00am 30.2 27.4 8.6 26 12.0 E 13 17 7 9 1017.1 1016.5 0.0
08/08:30am 28.9 26.5 8.6 28 11.2 ESE 11 15 6 8 1016.8 1016.2 0.0
08/08:00am 26.4 24.0 8.8 33 9.6 SSE 11 13 6 7 1016.6 1016.0 0.0
08/07:30am 22.9 20.9 8.6 40 7.6 SSE 9 11 5 6 1016.3 1015.7 0.0
08/07:00am 22.1 20.4 8.2 41 7.3 SSW 7 9 4 5 1016.0 1015.4 0.0
08/06:30am 22.7 20.2 8.4 40 7.6 ESE 11 13 6 7 1015.5 1014.9 0.0
08/06:00am 23.2 20.8 8.5 39 7.8 ESE 11 13 6 7 1015.1 1014.5 0.0
08/05:30am 23.5 21.1 8.8 39 7.9 E 11 13 6 7 1014.8 1014.2 0.0
08/05:00am 24.1 21.7 8.5 37 8.4 E 11 13 6 7 1014.6 1014.0 0.0
08/04:30am 24.6 21.7 8.1 35 8.8 E 13 13 7 7 1014.5 1013.9 0.0
08/04:00am 25.3 22.8 8.3 34 9.1 E 11 13 6 7 1014.5 1013.9 0.0
08/03:30am 25.9 23.1 8.4 33 9.5 ESE 13 13 7 7 1014.4 1013.8 0.0
08/03:00am 26.5 23.7 8.5 32 9.8 ESE 13 13 7 7 1014.4 1013.8 0.0
08/02:30am 27.5 24.7 8.4 30 10.4 ESE 13 15 7 8 1014.6 1014.0 0.0
08/02:00am 28.1 25.6 8.4 29 10.8 ESE 11 13 6 7 1014.7 1014.1 0.0
08/01:30am 29.1 26.3 8.7 28 11.3 ESE 13 15 7 8 1014.7 1014.1 0.0
08/01:00am 29.7 26.9 8.7 27 11.6 ESE 13 17 7 9 1014.7 1014.1 0.0
08/12:30am 30.9 27.7 8.6 25 12.4 SE 15 20 8 11 1014.6 1014.0 0.0
08/12:00am 31.6 28.4 8.6 24 12.9 SE 15 22 8 12 1014.4 1013.8 0.0
 
Date/Time
EDT
Temp
°C
App
Temp
°C
Dew
Point
Rel
Hum
%
Delta-T
°C
Wind Press
QNH
hPa
Press
MSL
hPa
Rain
since 9 am
mm
Dir
 
Spd
km/h
Gust
km/h
Spd
kts
Gust
kts
07/11:30pm 32.0 28.5 8.9 24 13.0 SE 17 22 9 12 1014.3 1013.7 0.0
07/11:00pm 32.6 29.1 8.8 23 13.4 SE 17 22 9 12 1014.0 1013.4 0.0
07/10:30pm 33.2 29.8 9.3 23 13.6 SE 17 24 9 13 1013.7 1013.1 0.0
07/10:00pm 33.8 30.4 9.1 22 14.1 SE 17 22 9 12 1013.3 1012.7 0.0
07/09:30pm 34.2 30.7 8.8 21 14.4 SSE 17 26 9 14 1012.7 1012.2 0.0
07/09:00pm 34.4 30.4 8.2 20 14.8 SE 19 24 10 13 1012.2 1011.7 0.0
07/08:30pm 35.1 32.2 4.6 15 16.3 SSE 9 13 5 7 1011.9 1011.4 0.0
07/08:00pm 36.3 33.6 5.5 15 16.8 S 9 15 5 8 1011.4 1010.9 0.0
07/07:30pm 37.2 34.0 5.3 14 17.4 SSW 11 19 6 10 1011.0 1010.5 0.0
07/07:00pm 37.0 32.7 5.1 14 17.4 SSW 17 24 9 13 1010.9 1010.4 0.0
07/06:30pm 37.7 34.2 5.6 14 17.6 WSW 13 22 7 12 1010.7 1010.2 0.0
07/06:00pm 37.8 33.6 5.7 14 17.7 S 17 26 9 14 1010.7 1010.2 0.0
07/05:30pm 38.1 34.7 6.0 14 17.8 SSE 13 26 7 14 1010.7 1010.2 0.0
07/05:00pm 38.3 33.8 6.1 14 17.9 WSW 19 28 10 15 1010.9 1010.4 0.0
07/04:30pm 38.1 34.0 6.0 14 17.8 SW 17 24 9 13 1011.1 1010.6 0.0
07/04:00pm 37.1 33.5 5.2 14 17.4 SSE 13 28 7 15 1011.4 1010.9 0.0
07/03:30pm 37.4 34.9 6.4 15 17.2 S 9 24 5 13 1011.7 1011.2 0.0
07/03:00pm 38.3 34.8 7.1 15 17.6 SSW 15 30 8 16 1012.1 1011.6 0.0
07/02:30pm 37.2 34.5 7.2 16 16.9 WNW 11 19 6 10 1012.4 1011.9 0.0
07/02:00pm 36.2 32.9 6.4 16 16.5 SW 13 33 7 18 1012.9 1012.3 0.0
07/01:30pm 37.1 34.0 7.1 16 16.8 W 13 30 7 16 1013.1 1012.5 0.0
07/01:00pm 35.2 32.7 6.5 17 15.8 N 9 13 5 7 1013.4 1012.8 0.0
07/12:30pm 34.7 31.9 8.4 20 14.9 WNW 13 20 7 11 1013.8 1013.2 0.0
07/12:00pm 34.4 32.1 8.9 21 14.5 W 11 17 6 9 1014.1 1013.5 0.0
07/11:30am 33.2 30.9 10.5 25 13.2 W 13 20 7 11 1014.3 1013.7 0.0
07/11:00am 32.8 30.4 10.2 25 13.0 WNW 13 20 7 11 1014.4 1013.8 0.0
07/10:30am 31.9 29.5 10.0 26 12.5 WSW 13 20 7 11 1014.5 1013.9 0.0
07/10:00am 30.4 27.9 9.8 28 11.7 W 13 17 7 9 1014.6 1014.0 0.0

Other Formats:

Comma delimited format used in spreadsheet applications
http://www.bom.gov.au/fwo/IDN60801/IDN60801.95695.axf

JavaScript Object Notation format (JSON) in row-major order
http://www.bom.gov.au/fwo/IDN60801/IDN60801.95695.json